sensor_id;sensor_type;location;lat;lon;timestamp;pressure;altitude;pressure_sealevel;temperature;humidity
47785;BME280;35233;55.686;37.848;2024-01-16T00:01:37;97293.16;;;18.14;28.90
47785;BME280;35233;55.686;37.848;2024-01-16T00:04:03;97295.81;;;18.14;28.43
47785;BME280;35233;55.686;37.848;2024-01-16T00:06:28;97292.16;;;18.15;28.38
47785;BME280;35233;55.686;37.848;2024-01-16T00:08:54;97303.72;;;18.15;28.90
47785;BME280;35233;55.686;37.848;2024-01-16T00:11:19;97305.69;;;18.13;28.76
47785;BME280;35233;55.686;37.848;2024-01-16T00:13:45;97307.34;;;18.14;28.77
47785;BME280;35233;55.686;37.848;2024-01-16T00:16:11;97302.84;;;18.15;28.81
47785;BME280;35233;55.686;37.848;2024-01-16T00:18:36;97304.84;;;18.13;28.74
47785;BME280;35233;55.686;37.848;2024-01-16T00:21:02;97301.16;;;18.14;28.40
47785;BME280;35233;55.686;37.848;2024-01-16T00:23:28;97293.03;;;18.15;28.26
47785;BME280;35233;55.686;37.848;2024-01-16T00:25:54;97299.03;;;18.17;28.64
47785;BME280;35233;55.686;37.848;2024-01-16T00:28:19;97297.78;;;18.12;28.35
47785;BME280;35233;55.686;37.848;2024-01-16T00:30:45;97292.31;;;18.13;28.37
47785;BME280;35233;55.686;37.848;2024-01-16T00:33:11;97296.66;;;18.14;28.74
47785;BME280;35233;55.686;37.848;2024-01-16T00:35:37;97291.31;;;18.14;28.66
47785;BME280;35233;55.686;37.848;2024-01-16T00:38:03;97301.16;;;18.14;28.75
47785;BME280;35233;55.686;37.848;2024-01-16T00:40:29;97296.66;;;18.14;28.25
47785;BME280;35233;55.686;37.848;2024-01-16T00:42:54;97291.31;;;18.14;28.19
47785;BME280;35233;55.686;37.848;2024-01-16T00:45:20;97296.38;;;18.17;28.16
47785;BME280;35233;55.686;37.848;2024-01-16T00:47:46;97294.53;;;18.18;28.65
47785;BME280;35233;55.686;37.848;2024-01-16T00:50:12;97297.06;;;18.19;28.46
47785;BME280;35233;55.686;37.848;2024-01-16T00:52:38;97290.34;;;18.15;28.12
47785;BME280;35233;55.686;37.848;2024-01-16T00:55:04;97292.72;;;18.18;28.64
47785;BME280;35233;55.686;37.848;2024-01-16T00:57:30;97301.56;;;18.19;28.30
47785;BME280;35233;55.686;37.848;2024-01-16T00:59:55;97297.19;;;18.18;28.34
47785;BME280;35233;55.686;37.848;2024-01-16T01:02:21;97305.22;;;18.18;28.51
47785;BME280;35233;55.686;37.848;2024-01-16T01:04:47;97300.88;;;18.17;28.54
47785;BME280;35233;55.686;37.848;2024-01-16T01:07:13;97285.13;;;18.14;28.33
47785;BME280;35233;55.686;37.848;2024-01-16T01:09:40;97293.56;;;18.19;28.17
47785;BME280;35233;55.686;37.848;2024-01-16T01:12:05;97285.84;;;18.16;28.02
47785;BME280;35233;55.686;37.848;2024-01-16T01:14:31;97293.25;;;18.22;28.32
47785;BME280;35233;55.686;37.848;2024-01-16T01:16:57;97294.22;;;18.21;28.08
47785;BME280;35233;55.686;37.848;2024-01-16T01:19:23;97292.97;;;18.25;28.02
47785;BME280;35233;55.686;37.848;2024-01-16T01:21:49;97295.09;;;18.21;28.09
47785;BME280;35233;55.686;37.848;2024-01-16T01:24:15;97286.22;;;18.21;28.49
47785;BME280;35233;55.686;37.848;2024-01-16T01:26:43;97293.25;;;18.22;28.50
47785;BME280;35233;55.686;37.848;2024-01-16T01:29:10;97291.84;;;18.18;28.34
47785;BME280;35233;55.686;37.848;2024-01-16T01:31:35;97291.00;;;18.17;28.22
47785;BME280;35233;55.686;37.848;2024-01-16T01:34:01;97282.16;;;18.17;28.13
47785;BME280;35233;55.686;37.848;2024-01-16T01:36:27;97288.75;;;18.22;28.24
47785;BME280;35233;55.686;37.848;2024-01-16T01:38:53;97287.91;;;18.22;28.32
47785;BME280;35233;55.686;37.848;2024-01-16T01:41:18;97276.38;;;18.21;27.91
47785;BME280;35233;55.686;37.848;2024-01-16T01:43:44;97284.25;;;18.23;28.31
47785;BME280;35233;55.686;37.848;2024-01-16T01:46:13;97281.72;;;18.21;28.35
47785;BME280;35233;55.686;37.848;2024-01-16T01:48:41;97272.19;;;18.19;28.04
47785;BME280;35233;55.686;37.848;2024-01-16T01:51:08;97281.47;;;18.15;28.09
47785;BME280;35233;55.686;37.848;2024-01-16T01:53:34;97277.34;;;18.20;27.93
47785;BME280;35233;55.686;37.848;2024-01-16T01:56:07;97274.38;;;18.23;28.15
47785;BME280;35233;55.686;37.848;2024-01-16T01:58:34;97272.19;;;18.19;28.31
47785;BME280;35233;55.686;37.848;2024-01-16T02:01:02;97269.94;;;18.14;28.18
47785;BME280;35233;55.686;37.848;2024-01-16T02:03:29;97271.34;;;18.18;28.31
47785;BME280;35233;55.686;37.848;2024-01-16T02:05:58;97271.03;;;18.21;28.12
47785;BME280;35233;55.686;37.848;2024-01-16T02:08:24;97272.00;;;18.20;28.21
47785;BME280;35233;55.686;37.848;2024-01-16T02:10:50;97270.16;;;18.21;28.21
47785;BME280;35233;55.686;37.848;2024-01-16T02:13:16;97270.34;;;18.19;27.90
47785;BME280;35233;55.686;37.848;2024-01-16T02:15:46;97279.06;;;18.21;28.20
47785;BME280;35233;55.686;37.848;2024-01-16T02:18:11;97258.41;;;18.14;28.05
47785;BME280;35233;55.686;37.848;2024-01-16T02:20:37;97273.84;;;18.20;28.07
47785;BME280;35233;55.686;37.848;2024-01-16T02:23:03;97273.53;;;18.23;27.77
47785;BME280;35233;55.686;37.848;2024-01-16T02:25:30;97269.22;;;18.22;28.17
47785;BME280;35233;55.686;37.848;2024-01-16T02:27:56;97278.19;;;18.21;27.84
47785;BME280;35233;55.686;37.848;2024-01-16T02:30:21;97279.06;;;18.21;28.04
47785;BME280;35233;55.686;37.848;2024-01-16T02:32:47;97279.19;;;18.20;28.23
47785;BME280;35233;55.686;37.848;2024-01-16T02:35:13;97275.53;;;18.21;27.95
47785;BME280;35233;55.686;37.848;2024-01-16T02:37:38;97279.72;;;18.23;27.78
47785;BME280;35233;55.686;37.848;2024-01-16T02:40:04;97275.81;;;18.18;27.96
47785;BME280;35233;55.686;37.848;2024-01-16T02:42:34;97270.47;;;18.18;28.07
47785;BME280;35233;55.686;37.848;2024-01-16T02:45:00;97274.16;;;18.17;28.20
47785;BME280;35233;55.686;37.848;2024-01-16T02:47:25;97280.19;;;18.19;27.76
47785;BME280;35233;55.686;37.848;2024-01-16T02:49:51;97276.69;;;18.18;27.77
47785;BME280;35233;55.686;37.848;2024-01-16T02:52:18;97292.84;;;18.17;27.81
47785;BME280;35233;55.686;37.848;2024-01-16T02:54:43;97283.69;;;18.19;28.27
47785;BME280;35233;55.686;37.848;2024-01-16T02:57:09;97296.75;;;18.22;27.97
47785;BME280;35233;55.686;37.848;2024-01-16T02:59:35;97296.06;;;18.20;27.82
47785;BME280;35233;55.686;37.848;2024-01-16T03:02:01;97291.56;;;18.21;28.12
47785;BME280;35233;55.686;37.848;2024-01-16T03:04:26;97292.84;;;18.17;28.13
47785;BME280;35233;55.686;37.848;2024-01-16T03:06:52;97289.88;;;18.20;28.31
47785;BME280;35233;55.686;37.848;2024-01-16T03:09:18;97295.75;;;18.23;28.24
47785;BME280;35233;55.686;37.848;2024-01-16T03:11:43;97290.28;;;18.25;27.81
47785;BME280;35233;55.686;37.848;2024-01-16T03:14:09;97288.03;;;18.20;28.07
47785;BME280;35233;55.686;37.848;2024-01-16T03:16:35;97283.69;;;18.19;27.83
47785;BME280;35233;55.686;37.848;2024-01-16T03:19:00;97277.53;;;18.19;27.92
47785;BME280;35233;55.686;37.848;2024-01-16T03:21:26;97283.69;;;18.19;28.10
47785;BME280;35233;55.686;37.848;2024-01-16T03:23:51;97283.28;;;18.24;27.98
47785;BME280;35233;55.686;37.848;2024-01-16T03:26:17;97280.88;;;18.21;28.18
47785;BME280;35233;55.686;37.848;2024-01-16T03:28:43;97281.16;;;18.18;27.78
47785;BME280;35233;55.686;37.848;2024-01-16T03:31:08;97286.38;;;18.19;28.09
47785;BME280;35233;55.686;37.848;2024-01-16T03:33:34;97284.84;;;18.17;27.82
47785;BME280;35233;55.686;37.848;2024-01-16T03:36:00;97278.78;;;18.15;28.33
47785;BME280;35233;55.686;37.848;2024-01-16T03:38:26;97274.16;;;18.17;28.27
47785;BME280;35233;55.686;37.848;2024-01-16T03:40:52;97276.00;;;18.16;27.64
47785;BME280;35233;55.686;37.848;2024-01-16T03:43:18;97287.91;;;18.22;28.22
47785;BME280;35233;55.686;37.848;2024-01-16T03:45:44;97296.75;;;18.22;28.15
47785;BME280;35233;55.686;37.848;2024-01-16T03:48:09;97301.69;;;18.17;27.79
47785;BME280;35233;55.686;37.848;2024-01-16T03:50:35;97299.19;;;18.16;27.76
47785;BME280;35233;55.686;37.848;2024-01-16T03:53:02;97292.41;;;18.21;28.10
47785;BME280;35233;55.686;37.848;2024-01-16T03:55:29;97301.41;;;18.20;28.17
47785;BME280;35233;55.686;37.848;2024-01-16T03:57:56;97300.03;;;18.16;28.04
47785;BME280;35233;55.686;37.848;2024-01-16T04:00:21;97284.84;;;18.17;28.14
47785;BME280;35233;55.686;37.848;2024-01-16T04:02:47;97287.28;;;18.10;27.75
47785;BME280;35233;55.686;37.848;2024-01-16T04:05:13;97293.28;;;18.12;27.86
47785;BME280;35233;55.686;37.848;2024-01-16T04:07:38;97291.47;;;18.13;28.19
47785;BME280;35233;55.686;37.848;2024-01-16T04:10:06;97291.19;;;18.16;28.19
47785;BME280;35233;55.686;37.848;2024-01-16T04:12:32;97290.47;;;18.14;28.18
47785;BME280;35233;55.686;37.848;2024-01-16T04:14:57;97295.53;;;18.17;27.83
47785;BME280;35233;55.686;37.848;2024-01-16T04:17:23;97289.34;;;18.16;27.85
47785;BME280;35233;55.686;37.848;2024-01-16T04:19:48;97291.31;;;18.14;27.74
47785;BME280;35233;55.686;37.848;2024-01-16T04:22:14;97302.53;;;18.18;27.74
47785;BME280;35233;55.686;37.848;2024-01-16T04:24:39;97297.19;;;18.18;27.98
47785;BME280;35233;55.686;37.848;2024-01-16T04:27:05;97296.66;;;18.14;27.70
47785;BME280;35233;55.686;37.848;2024-01-16T04:29:31;97290.19;;;18.17;27.82
47785;BME280;35233;55.686;37.848;2024-01-16T04:31:57;97300.03;;;18.16;28.07
47785;BME280;35233;55.686;37.848;2024-01-16T04:34:23;97291.31;;;18.14;28.29
47785;BME280;35233;55.686;37.848;2024-01-16T04:36:48;97295.00;;;18.13;27.79
47785;BME280;35233;55.686;37.848;2024-01-16T04:39:14;97290.06;;;18.18;28.21
47785;BME280;35233;55.686;37.848;2024-01-16T04:41:39;97292.00;;;18.16;27.90
47785;BME280;35233;55.686;37.848;2024-01-16T04:44:05;97296.91;;;18.21;27.82
47785;BME280;35233;55.686;37.848;2024-01-16T04:46:31;97302.72;;;18.16;28.26
47785;BME280;35233;55.686;37.848;2024-01-16T04:48:56;97309.28;;;18.22;28.20
47785;BME280;35233;55.686;37.848;2024-01-16T04:51:22;97301.97;;;18.24;28.40
47785;BME280;35233;55.686;37.848;2024-01-16T04:53:47;97308.44;;;18.21;28.16
47785;BME280;35233;55.686;37.848;2024-01-16T04:56:13;97302.53;;;18.18;28.76
47785;BME280;35233;55.686;37.848;2024-01-16T04:58:39;97314.03;;;18.28;28.77
47785;BME280;35233;55.686;37.848;2024-01-16T05:01:04;97319.69;;;18.25;28.94
47785;BME280;35233;55.686;37.848;2024-01-16T05:03:30;97320.81;;;18.22;29.22
47785;BME280;35233;55.686;37.848;2024-01-16T05:05:56;97322.66;;;18.22;29.00
47785;BME280;35233;55.686;37.848;2024-01-16T05:08:22;97324.31;;;18.23;29.32
47785;BME280;35233;55.686;37.848;2024-01-16T05:10:48;97329.84;;;18.21;29.44
47785;BME280;35233;55.686;37.848;2024-01-16T05:13:13;97315.03;;;18.27;29.33
47785;BME280;35233;55.686;37.848;2024-01-16T05:15:40;97313.88;;;18.29;29.24
47785;BME280;35233;55.686;37.848;2024-01-16T05:18:06;97314.88;;;18.28;29.42
47785;BME280;35233;55.686;37.848;2024-01-16T05:20:31;97320.75;;;18.32;29.09
47785;BME280;35233;55.686;37.848;2024-01-16T05:22:57;97289.47;;;18.15;29.24
47785;BME280;35233;55.686;37.848;2024-01-16T05:25:22;97323.28;;;18.33;29.18
47785;BME280;35233;55.686;37.848;2024-01-16T05:27:48;97324.13;;;18.34;29.02
47785;BME280;35233;55.686;37.848;2024-01-16T05:30:14;97320.75;;;18.32;28.94
47785;BME280;35233;55.686;37.848;2024-01-16T05:32:40;97322.47;;;18.33;28.99
47785;BME280;35233;55.686;37.848;2024-01-16T05:35:07;97314.44;;;18.33;29.08
47785;BME280;35233;55.686;37.848;2024-01-16T05:37:32;97328.47;;;18.35;28.54
47785;BME280;35233;55.686;37.848;2024-01-16T05:39:58;97323.44;;;18.32;28.86
47785;BME280;35233;55.686;37.848;2024-01-16T05:42:24;97329.78;;;18.31;28.43
47785;BME280;35233;55.686;37.848;2024-01-16T05:44:49;97329.78;;;18.31;28.57
47785;BME280;35233;55.686;37.848;2024-01-16T05:47:15;97319.78;;;18.33;28.69
47785;BME280;35233;55.686;37.848;2024-01-16T05:49:40;97321.63;;;18.32;28.49
47785;BME280;35233;55.686;37.848;2024-01-16T05:52:08;97323.00;;;18.37;28.74
47785;BME280;35233;55.686;37.848;2024-01-16T05:54:33;97300.66;;;18.28;28.83
47785;BME280;35233;55.686;37.848;2024-01-16T05:56:59;97311.59;;;18.35;28.64
47785;BME280;35233;55.686;37.848;2024-01-16T05:59:24;97303.88;;;18.31;28.99
47785;BME280;35233;55.686;37.848;2024-01-16T06:01:50;97306.56;;;18.31;29.14
47785;BME280;35233;55.686;37.848;2024-01-16T06:04:16;97295.44;;;18.36;29.65
47785;BME280;35233;55.686;37.848;2024-01-16T06:06:41;97313.13;;;18.37;29.46
47785;BME280;35233;55.686;37.848;2024-01-16T06:09:10;97307.66;;;18.39;29.46
47785;BME280;35233;55.686;37.848;2024-01-16T06:11:39;97306.66;;;18.40;29.36
47785;BME280;35233;55.686;37.848;2024-01-16T06:14:07;97309.75;;;18.35;29.71
47785;BME280;35233;55.686;37.848;2024-01-16T06:16:33;97334.53;;;18.37;29.54
47785;BME280;35233;55.686;37.848;2024-01-16T06:18:58;97337.72;;;18.41;29.35
47785;BME280;35233;55.686;37.848;2024-01-16T06:21:24;97333.53;;;18.38;29.55
47785;BME280;35233;55.686;37.848;2024-01-16T06:23:50;97335.91;;;18.41;29.97
47785;BME280;35233;55.686;37.848;2024-01-16T06:26:15;97328.16;;;18.38;29.45
47785;BME280;35233;55.686;37.848;2024-01-16T06:28:41;97319.47;;;18.36;29.66
47785;BME280;35233;55.686;37.848;2024-01-16T06:31:08;97319.31;;;18.38;29.84
47785;BME280;35233;55.686;37.848;2024-01-16T06:33:34;97316.09;;;18.34;29.34
47785;BME280;35233;55.686;37.848;2024-01-16T06:36:02;97315.28;;;18.33;29.79
47785;BME280;35233;55.686;37.848;2024-01-16T06:38:30;97310.00;;;18.24;29.43
47785;BME280;35233;55.686;37.848;2024-01-16T06:40:56;97350.25;;;18.40;29.43
47785;BME280;35233;55.686;37.848;2024-01-16T06:43:22;97333.16;;;18.33;29.36
47785;BME280;35233;55.686;37.848;2024-01-16T06:45:47;97339.88;;;18.37;29.39
47785;BME280;35233;55.686;37.848;2024-01-16T06:48:13;97321.03;;;18.39;29.08
47785;BME280;35233;55.686;37.848;2024-01-16T06:50:39;97303.03;;;18.31;28.84
47785;BME280;35233;55.686;37.848;2024-01-16T06:53:04;97331.72;;;18.39;29.23
47785;BME280;35233;55.686;37.848;2024-01-16T06:55:30;97336.19;;;18.38;29.07
47785;BME280;35233;55.686;37.848;2024-01-16T06:57:55;97302.22;;;18.30;29.09
47785;BME280;35233;55.686;37.848;2024-01-16T07:00:21;97321.69;;;18.41;29.05
47785;BME280;35233;55.686;37.848;2024-01-16T07:02:51;97324.53;;;18.39;29.20
47785;BME280;35233;55.686;37.848;2024-01-16T07:05:17;97331.72;;;18.39;28.73
47785;BME280;35233;55.686;37.848;2024-01-16T07:07:43;97328.88;;;18.40;28.79
47785;BME280;35233;55.686;37.848;2024-01-16T07:10:08;97330.84;;;18.38;29.03
47785;BME280;35233;55.686;37.848;2024-01-16T07:12:39;97336.50;;;18.35;29.05
47785;BME280;35233;55.686;37.848;2024-01-16T07:15:05;97345.91;;;18.39;29.03
47785;BME280;35233;55.686;37.848;2024-01-16T07:17:31;97340.03;;;18.36;28.48
47785;BME280;35233;55.686;37.848;2024-01-16T07:19:57;97350.97;;;18.42;28.45
47785;BME280;35233;55.686;37.848;2024-01-16T07:22:24;97346.03;;;18.38;28.48
47785;BME280;35233;55.686;37.848;2024-01-16T07:24:49;97354.47;;;18.43;28.35
47785;BME280;35233;55.686;37.848;2024-01-16T07:27:15;97343.25;;;18.39;28.70
47785;BME280;35233;55.686;37.848;2024-01-16T07:29:40;97350.25;;;18.40;28.36
47785;BME280;35233;55.686;37.848;2024-01-16T07:32:07;97340.56;;;18.39;28.59
47785;BME280;35233;55.686;37.848;2024-01-16T07:34:32;97339.72;;;18.39;28.78
47785;BME280;35233;55.686;37.848;2024-01-16T07:36:58;97334.38;;;18.39;28.86
47785;BME280;35233;55.686;37.848;2024-01-16T07:39:24;97325.50;;;18.38;28.64
47785;BME280;35233;55.686;37.848;2024-01-16T07:41:49;97332.25;;;18.42;28.30
47785;BME280;35233;55.686;37.848;2024-01-16T07:44:15;97325.78;;;18.35;28.43
47785;BME280;35233;55.686;37.848;2024-01-16T07:46:41;97338.88;;;18.38;28.68
47785;BME280;35233;55.686;37.848;2024-01-16T07:49:06;97328.03;;;18.40;28.59
47785;BME280;35233;55.686;37.848;2024-01-16T07:51:32;97329.72;;;18.41;28.23
47785;BME280;35233;55.686;37.848;2024-01-16T07:54:08;97328.13;;;18.48;28.03
47785;BME280;35233;55.686;37.848;2024-01-16T07:56:36;97310.63;;;18.36;27.96
47785;BME280;35233;55.686;37.848;2024-01-16T07:59:03;97322.78;;;18.48;28.00
47785;BME280;35233;55.686;37.848;2024-01-16T08:01:28;97323.22;;;18.43;28.46
47785;BME280;35233;55.686;37.848;2024-01-16T08:03:55;97329.09;;;18.47;28.04
47785;BME280;35233;55.686;37.848;2024-01-16T08:06:21;97321.97;;;18.47;28.04
47785;BME280;35233;55.686;37.848;2024-01-16T08:08:47;97331.78;;;18.47;27.94
47785;BME280;35233;55.686;37.848;2024-01-16T08:11:14;97334.31;;;18.48;27.88
47785;BME280;35233;55.686;37.848;2024-01-16T08:13:39;97325.47;;;18.48;28.27
47785;BME280;35233;55.686;37.848;2024-01-16T08:16:05;97317.38;;;18.58;27.70
47785;BME280;35233;55.686;37.848;2024-01-16T08:18:31;97306.16;;;18.54;27.96
47785;BME280;35233;55.686;37.848;2024-01-16T08:20:57;97298.66;;;18.58;27.79
47785;BME280;35233;55.686;37.848;2024-01-16T08:23:23;97292.47;;;18.57;27.73
47785;BME280;35233;55.686;37.848;2024-01-16T08:25:48;97295.84;;;18.59;27.62
47785;BME280;35233;55.686;37.848;2024-01-16T08:28:14;97299.34;;;18.60;27.87
47785;BME280;35233;55.686;37.848;2024-01-16T08:30:40;97296.69;;;18.60;27.81
47785;BME280;35233;55.686;37.848;2024-01-16T08:33:06;97285.59;;;18.54;27.60
47785;BME280;35233;55.686;37.848;2024-01-16T08:35:32;97299.75;;;18.65;27.94
47785;BME280;35233;55.686;37.848;2024-01-16T08:37:58;97293.41;;;18.66;27.77
47785;BME280;35233;55.686;37.848;2024-01-16T08:40:24;97301.41;;;18.66;27.40
47785;BME280;35233;55.686;37.848;2024-01-16T08:42:50;97299.75;;;18.65;27.81
47785;BME280;35233;55.686;37.848;2024-01-16T08:45:20;97301.25;;;18.67;27.82
47785;BME280;35233;55.686;37.848;2024-01-16T08:47:46;97306.06;;;18.64;27.51
47785;BME280;35233;55.686;37.848;2024-01-16T08:50:12;97314.09;;;18.64;27.52
47785;BME280;35233;55.686;37.848;2024-01-16T08:52:38;97291.34;;;18.60;27.79
47785;BME280;35233;55.686;37.848;2024-01-16T08:55:03;97312.94;;;18.66;27.77
47785;BME280;35233;55.686;37.848;2024-01-16T08:57:29;97307.91;;;18.63;27.61
47785;BME280;35233;55.686;37.848;2024-01-16T08:59:55;97305.09;;;18.65;27.62
47785;BME280;35233;55.686;37.848;2024-01-16T09:02:21;97302.56;;;18.63;27.63
47785;BME280;35233;55.686;37.848;2024-01-16T09:04:47;97295.75;;;18.69;27.26
47785;BME280;35233;55.686;37.848;2024-01-16T09:07:16;97302.25;;;18.66;27.75
47785;BME280;35233;55.686;37.848;2024-01-16T09:09:42;97300.28;;;18.68;27.85
47785;BME280;35233;55.686;37.848;2024-01-16T09:12:10;97294.75;;;18.70;27.26
47785;BME280;35233;55.686;37.848;2024-01-16T09:14:36;97296.03;;;18.75;27.17
47785;BME280;35233;55.686;37.848;2024-01-16T09:17:02;97283.53;;;19.02;27.31
47785;BME280;35233;55.686;37.848;2024-01-16T09:19:28;97284.91;;;19.24;26.92
47785;BME280;35233;55.686;37.848;2024-01-16T09:21:55;97284.47;;;19.37;27.21
47785;BME280;35233;55.686;37.848;2024-01-16T09:24:20;97269.81;;;19.41;27.02
47785;BME280;35233;55.686;37.848;2024-01-16T09:26:46;97264.66;;;19.48;26.83
47785;BME280;35233;55.686;37.848;2024-01-16T09:29:12;97269.78;;;18.79;27.73
47785;BME280;35233;55.686;37.848;2024-01-16T09:31:37;97277.22;;;17.47;29.08
47785;BME280;35233;55.686;37.848;2024-01-16T09:34:04;97278.59;;;16.85;29.65
47785;BME280;35233;55.686;37.848;2024-01-16T09:36:30;97285.72;;;16.55;29.54
47785;BME280;35233;55.686;37.848;2024-01-16T09:38:55;97281.72;;;16.40;29.43
47785;BME280;35233;55.686;37.848;2024-01-16T09:41:21;97278.63;;;16.25;29.72
47785;BME280;35233;55.686;37.848;2024-01-16T09:43:47;97275.94;;;16.15;30.03
47785;BME280;35233;55.686;37.848;2024-01-16T09:46:15;97275.06;;;16.05;29.80
47785;BME280;35233;55.686;37.848;2024-01-16T09:48:41;97273.50;;;15.93;29.77
47785;BME280;35233;55.686;37.848;2024-01-16T09:51:10;97262.22;;;15.79;30.09
47785;BME280;35233;55.686;37.848;2024-01-16T09:53:41;97264.03;;;15.69;30.21
47785;BME280;35233;55.686;37.848;2024-01-16T09:56:12;97263.69;;;15.62;29.95
47785;BME280;35233;55.686;37.848;2024-01-16T09:58:39;97271.59;;;15.53;30.39
47785;BME280;35233;55.686;37.848;2024-01-16T10:01:06;97257.28;;;15.44;30.39
47785;BME280;35233;55.686;37.848;2024-01-16T10:03:34;97255.31;;;15.36;30.27
47785;BME280;35233;55.686;37.848;2024-01-16T10:06:09;97263.66;;;15.32;30.15
47785;BME280;35233;55.686;37.848;2024-01-16T10:08:35;97256.59;;;15.21;30.39
47785;BME280;35233;55.686;37.848;2024-01-16T10:11:02;97240.75;;;15.10;30.50
47785;BME280;35233;55.686;37.848;2024-01-16T10:13:28;97256.97;;;15.07;30.75
47785;BME280;35233;55.686;37.848;2024-01-16T10:15:55;97257.44;;;15.01;30.70
47785;BME280;35233;55.686;37.848;2024-01-16T10:18:25;97257.53;;;14.89;30.78
47785;BME280;35233;55.686;37.848;2024-01-16T10:20:51;97250.19;;;14.82;30.74
47785;BME280;35233;55.686;37.848;2024-01-16T10:23:29;97257.97;;;14.74;31.03
47785;BME280;35233;55.686;37.848;2024-01-16T10:28:39;97259.31;;;14.68;31.42
47785;BME280;35233;55.686;37.848;2024-01-16T10:31:09;97265.03;;;14.63;31.25
47785;BME280;35233;55.686;37.848;2024-01-16T10:33:52;97255.88;;;14.56;31.44
47785;BME280;35233;55.686;37.848;2024-01-16T10:36:23;97258.78;;;14.53;31.11
47785;BME280;35233;55.686;37.848;2024-01-16T10:38:50;97248.75;;;14.45;31.11
47785;BME280;35233;55.686;37.848;2024-01-16T10:41:23;97247.31;;;14.41;31.37
47785;BME280;35233;55.686;37.848;2024-01-16T10:44:05;97248.41;;;14.39;31.43
47785;BME280;35233;55.686;37.848;2024-01-16T10:46:35;97247.00;;;14.35;31.86
47785;BME280;35233;55.686;37.848;2024-01-16T10:49:03;97238.44;;;14.31;31.90
47785;BME280;35233;55.686;37.848;2024-01-16T10:51:31;97233.50;;;14.26;32.07
47785;BME280;35233;55.686;37.848;2024-01-16T10:54:04;97237.38;;;14.22;31.28
47785;BME280;35233;55.686;37.848;2024-01-16T10:56:31;97220.81;;;14.19;31.93
47785;BME280;35233;55.686;37.848;2024-01-16T10:59:09;97226.53;;;14.14;31.96
47785;BME280;35233;55.686;37.848;2024-01-16T11:01:37;97223.50;;;14.08;32.16
47785;BME280;35233;55.686;37.848;2024-01-16T11:04:03;97220.75;;;14.09;31.95
47785;BME280;35233;55.686;37.848;2024-01-16T11:07:05;97210.75;;;14.01;32.13
47785;BME280;35233;55.686;37.848;2024-01-16T11:09:31;97217.88;;;14.01;31.81
47785;BME280;35233;55.686;37.848;2024-01-16T11:11:57;97215.47;;;13.98;32.35
47785;BME280;35233;55.686;37.848;2024-01-16T11:14:24;97217.03;;;13.89;32.33
47785;BME280;35233;55.686;37.848;2024-01-16T11:16:51;97218.03;;;13.88;31.58
47785;BME280;35233;55.686;37.848;2024-01-16T11:19:18;97205.50;;;13.79;32.12
47785;BME280;35233;55.686;37.848;2024-01-16T11:21:45;97210.09;;;13.77;32.36
47785;BME280;35233;55.686;37.848;2024-01-16T11:24:12;97213.94;;;13.73;31.87
47785;BME280;35233;55.686;37.848;2024-01-16T11:26:41;97213.34;;;13.69;32.41
47785;BME280;35233;55.686;37.848;2024-01-16T11:31:55;97213.59;;;13.66;32.34
47785;BME280;35233;55.686;37.848;2024-01-16T11:37:26;97197.06;;;13.63;32.62
47785;BME280;35233;55.686;37.848;2024-01-16T11:42:47;97189.97;;;13.52;32.63
47785;BME280;35233;55.686;37.848;2024-01-16T11:48:13;97194.06;;;13.45;31.90
47785;BME280;35233;55.686;37.848;2024-01-16T11:50:39;97196.84;;;13.43;32.21
47785;BME280;35233;55.686;37.848;2024-01-16T11:53:06;97193.72;;;13.38;32.74
47785;BME280;35233;55.686;37.848;2024-01-16T12:00:40;97184.91;;;13.26;32.97
47785;BME280;35233;55.686;37.848;2024-01-16T12:03:08;97181.91;;;13.31;32.56
47785;BME280;35233;55.686;37.848;2024-01-16T12:05:34;97174.09;;;13.29;32.60
47785;BME280;35233;55.686;37.848;2024-01-16T12:08:00;97178.28;;;13.21;32.57
47785;BME280;35233;55.686;37.848;2024-01-16T12:10:29;97182.34;;;13.25;32.54
47785;BME280;35233;55.686;37.848;2024-01-16T12:13:00;97189.38;;;13.26;32.44
47785;BME280;35233;55.686;37.848;2024-01-16T12:15:27;97179.81;;;13.23;32.73
47785;BME280;35233;55.686;37.848;2024-01-16T12:17:54;97168.25;;;13.13;33.02
47785;BME280;35233;55.686;37.848;2024-01-16T12:20:21;97174.88;;;13.19;33.09
47785;BME280;35233;55.686;37.848;2024-01-16T12:23:05;97169.44;;;13.20;33.01
47785;BME280;35233;55.686;37.848;2024-01-16T12:25:33;97154.28;;;13.11;33.20
47785;BME280;35233;55.686;37.848;2024-01-16T12:28:00;97160.16;;;13.14;33.24
47785;BME280;35233;55.686;37.848;2024-01-16T12:30:30;97148.38;;;13.07;32.87
47785;BME280;35233;55.686;37.848;2024-01-16T12:33:26;97148.63;;;13.04;33.04
47785;BME280;35233;55.686;37.848;2024-01-16T12:36:01;97156.81;;;13.01;32.86
47785;BME280;35233;55.686;37.848;2024-01-16T12:38:29;97153.66;;;12.96;33.18
47785;BME280;35233;55.686;37.848;2024-01-16T12:40:55;97158.97;;;12.96;32.68
47785;BME280;35233;55.686;37.848;2024-01-16T12:43:21;97152.84;;;12.96;32.97
47785;BME280;35233;55.686;37.848;2024-01-16T12:45:55;97155.84;;;13.02;33.05
47785;BME280;35233;55.686;37.848;2024-01-16T12:48:25;97152.69;;;12.97;32.85
47785;BME280;35233;55.686;37.848;2024-01-16T12:50:51;97148.38;;;12.96;33.18
47785;BME280;35233;55.686;37.848;2024-01-16T12:53:17;97145.22;;;12.91;33.19
47785;BME280;35233;55.686;37.848;2024-01-16T12:56:00;97141.50;;;12.82;33.19
47785;BME280;35233;55.686;37.848;2024-01-16T12:58:36;97131.25;;;12.78;33.25
47785;BME280;35233;55.686;37.848;2024-01-16T13:01:25;97150.03;;;12.75;33.74
47785;BME280;35233;55.686;37.848;2024-01-16T13:03:52;97155.91;;;12.67;33.76
47785;BME280;35233;55.686;37.848;2024-01-16T13:06:19;97142.56;;;12.68;33.22
47785;BME280;35233;55.686;37.848;2024-01-16T13:08:49;97144.59;;;12.65;33.05